Time;durP1;ratioP1;P1;durP2;ratioP2;P2;SDS_P1;SDS_P2;PMS_P1;PMS_P2;Temp;Humidity;BMP_temperature;BMP_pressure;BME280_temperature;BME280_humidity;BME280_pressure;Samples;Min_cycle;Max_cycle;Signal;HPM_P1;HPM_P2
2022/05/22 00:01:54;;;;;;;3.78;3.08;;;12.50;99.90;;;;;;4938368;29;20242;-69
2022/05/22 00:04:27;;;;;;;4.68;2.53;;;12.50;99.90;;;;;;4937237;29;20550;-69
2022/05/22 00:06:53;;;;;;;5.93;2.80;;;12.50;99.90;;;;;;4937718;29;20173;-69
2022/05/22 00:09:18;;;;;;;4.43;2.67;;;12.30;99.90;;;;;;4936827;29;20179;-69
2022/05/22 00:11:44;;;;;;;3.92;2.47;;;12.30;99.90;;;;;;4937946;29;20187;-69
2022/05/22 00:14:13;;;;;;;5.85;2.83;;;12.30;99.90;;;;;;4937089;29;20193;-69
2022/05/22 00:16:42;;;;;;;6.88;3.00;;;12.20;99.90;;;;;;4937468;29;20209;-69
2022/05/22 00:19:17;;;;;;;5.28;2.50;;;12.30;99.90;;;;;;4937819;29;20260;-69
2022/05/22 00:21:43;;;;;;;5.95;2.70;;;12.20;99.90;;;;;;4936653;29;20178;-69
2022/05/22 00:24:11;;;;;;;3.20;2.60;;;12.10;99.90;;;;;;4936549;29;20190;-69
2022/05/22 00:26:36;;;;;;;3.03;2.70;;;12.10;99.90;;;;;;4936742;29;20174;-69
2022/05/22 00:29:03;;;;;;;5.07;2.85;;;12.20;99.90;;;;;;4936993;29;20193;-69
2022/05/22 00:31:29;;;;;;;5.93;2.67;;;12.20;99.90;;;;;;4937840;29;20186;-69
2022/05/22 00:33:55;;;;;;;3.95;2.60;;;12.30;99.90;;;;;;4936309;29;20210;-69
2022/05/22 00:36:20;;;;;;;5.95;2.75;;;12.40;99.90;;;;;;4936401;29;20190;-70
2022/05/22 00:38:46;;;;;;;3.00;2.40;;;12.40;99.90;;;;;;4936749;29;20688;-70
2022/05/22 00:41:13;;;;;;;2.67;2.40;;;12.40;99.90;;;;;;4937757;29;20208;-70
2022/05/22 00:43:47;;;;;;;6.30;2.55;;;12.40;99.90;;;;;;4936623;29;20213;-70
2022/05/22 00:46:15;;;;;;;4.97;2.58;;;12.40;99.90;;;;;;4936438;29;20205;-70
2022/05/22 00:48:44;;;;;;;2.42;2.22;;;12.50;99.90;;;;;;4936443;29;20182;-70
2022/05/22 00:54:39;;;;;;;3.50;2.60;;;12.40;99.90;;;;;;4937516;29;20167;-70
2022/05/22 00:57:24;;;;;;;2.70;2.30;;;12.40;99.90;;;;;;4936032;29;20249;-70
2022/05/22 00:59:56;;;;;;;8.18;2.60;;;12.30;99.90;;;;;;4936735;29;20202;-70
2022/05/22 01:02:22;;;;;;;4.18;2.60;;;12.30;99.90;;;;;;4937081;29;20198;-69
2022/05/22 01:04:49;;;;;;;6.05;2.70;;;12.30;99.90;;;;;;4935911;29;20286;-69
2022/05/22 01:07:17;;;;;;;3.83;2.63;;;12.30;99.90;;;;;;4936069;29;20205;-69
2022/05/22 01:09:44;;;;;;;4.47;2.80;;;12.20;99.90;;;;;;4935836;29;20553;-70
2022/05/22 01:12:17;;;;;;;5.32;3.17;;;12.10;99.90;;;;;;4936375;29;20280;-70
2022/05/22 01:14:47;;;;;;;6.63;3.22;;;12.10;99.90;;;;;;4935692;29;20166;-70
2022/05/22 01:17:13;;;;;;;4.03;2.88;;;12.10;99.90;;;;;;4935930;29;20537;-70
2022/05/22 01:19:38;;;;;;;4.78;2.83;;;12.10;99.90;;;;;;4937020;29;20202;-70
2022/05/22 01:22:12;;;;;;;5.80;3.17;;;12.10;99.90;;;;;;4936737;29;20205;-70
2022/05/22 01:24:38;;;;;;;5.45;2.85;;;12.10;99.90;;;;;;4936390;29;20170;-70
2022/05/22 01:27:07;;;;;;;6.50;2.72;;;12.10;99.90;;;;;;4935582;29;20193;-70
2022/05/22 01:29:32;;;;;;;4.20;2.85;;;12.00;99.90;;;;;;4936566;29;20273;-70
2022/05/22 01:31:58;;;;;;;4.90;2.90;;;11.80;99.90;;;;;;4936557;29;20274;-70
2022/05/22 01:34:23;;;;;;;6.03;2.63;;;11.90;99.90;;;;;;4935419;29;20186;-70
2022/05/22 01:36:49;;;;;;;3.83;3.10;;;11.90;99.90;;;;;;4935554;29;20186;-70
2022/05/22 01:39:15;;;;;;;3.70;3.20;;;11.90;99.90;;;;;;4935261;29;20574;-70
2022/05/22 01:41:41;;;;;;;5.70;2.95;;;11.90;99.90;;;;;;4935864;29;20182;-70
2022/05/22 01:44:06;;;;;;;4.22;2.85;;;11.70;99.90;;;;;;4935629;29;20197;-70
2022/05/22 01:46:32;;;;;;;6.00;2.95;;;11.70;99.90;;;;;;4936382;29;20646;-70
2022/05/22 01:48:58;;;;;;;7.28;2.90;;;11.70;99.90;;;;;;4935452;29;20178;-70
2022/05/22 01:51:26;;;;;;;3.20;2.90;;;11.70;99.90;;;;;;4935478;29;20194;-70
2022/05/22 01:53:53;;;;;;;4.82;3.05;;;11.80;99.90;;;;;;4936613;29;20234;-70
2022/05/22 01:56:18;;;;;;;4.25;3.22;;;11.70;99.90;;;;;;4934669;29;20178;-70
2022/05/22 01:58:44;;;;;;;6.70;3.22;;;11.70;99.90;;;;;;4934985;29;20206;-70
2022/05/22 02:01:11;;;;;;;3.85;3.17;;;11.80;99.90;;;;;;4936541;29;20286;-70
2022/05/22 02:03:36;;;;;;;4.15;3.30;;;11.70;99.90;;;;;;4934968;29;20209;-70
2022/05/22 02:06:02;;;;;;;4.82;3.13;;;11.70;99.90;;;;;;4935139;29;20182;-70
2022/05/22 02:08:27;;;;;;;5.40;3.25;;;11.70;99.90;;;;;;4934946;29;20190;-70
2022/05/22 02:11:00;;;;;;;5.40;3.45;;;11.70;99.90;;;;;;4935024;29;20609;-70
2022/05/22 02:13:32;;;;;;;3.50;3.20;;;11.60;99.90;;;;;;4934873;29;20209;-70
2022/05/22 02:15:58;;;;;;;3.28;2.97;;;11.60;99.90;;;;;;4936390;29;20221;-70
2022/05/22 02:18:24;;;;;;;6.38;3.63;;;11.60;99.90;;;;;;4935062;29;20202;-70
2022/05/22 02:20:50;;;;;;;4.07;3.15;;;11.50;99.90;;;;;;4934982;29;20202;-70
2022/05/22 02:23:16;;;;;;;4.72;3.08;;;11.50;99.90;;;;;;4935974;29;20217;-70
2022/05/22 02:25:45;;;;;;;3.63;2.85;;;11.60;99.90;;;;;;4935949;29;20241;-70
2022/05/22 02:28:14;;;;;;;4.28;3.00;;;11.60;99.90;;;;;;4934931;29;20178;-70
2022/05/22 02:30:42;;;;;;;3.42;2.67;;;11.70;99.90;;;;;;4936026;29;20178;-70
2022/05/22 02:33:10;;;;;;;3.95;3.20;;;11.80;99.90;;;;;;4936155;29;20209;-69
2022/05/22 02:35:36;;;;;;;5.38;3.10;;;11.90;99.90;;;;;;4934713;29;20186;-69
2022/05/22 02:38:04;;;;;;;3.72;3.15;;;11.90;99.90;;;;;;4934797;29;20202;-69
2022/05/22 02:40:31;;;;;;;3.85;2.85;;;12.00;99.90;;;;;;4934661;29;20174;-69
2022/05/22 02:42:57;;;;;;;8.38;3.15;;;12.10;99.90;;;;;;4935838;29;20209;-69
2022/05/22 02:45:25;;;;;;;4.90;3.13;;;12.10;99.90;;;;;;4934731;29;20178;-69
2022/05/22 02:47:51;;;;;;;5.57;3.00;;;12.10;99.90;;;;;;4934910;29;20209;-69
2022/05/22 02:50:21;;;;;;;3.80;2.97;;;12.10;99.90;;;;;;4934555;29;20230;-69
2022/05/22 02:52:46;;;;;;;4.60;3.03;;;12.10;99.90;;;;;;4935683;29;20203;-69
2022/05/22 02:55:12;;;;;;;6.50;2.95;;;12.10;99.90;;;;;;4934877;29;20174;-69
2022/05/22 02:57:40;;;;;;;8.70;3.40;;;12.00;99.90;;;;;;4935614;29;20182;-69
2022/05/22 03:00:09;;;;;;;4.00;3.00;;;11.90;99.90;;;;;;4934533;29;20210;-69
2022/05/22 03:02:35;;;;;;;4.07;2.83;;;12.00;99.90;;;;;;4935176;29;20269;-69
2022/05/22 03:05:01;;;;;;;4.07;2.90;;;12.00;99.90;;;;;;4935612;29;20626;-69
2022/05/22 03:07:26;;;;;;;5.68;3.10;;;12.00;99.90;;;;;;4935240;29;20181;-69
2022/05/22 03:09:52;;;;;;;3.50;3.20;;;12.00;99.90;;;;;;4938061;29;20710;-69
2022/05/22 03:12:23;;;;;;;4.90;3.15;;;12.00;99.90;;;;;;4938646;29;20210;-69
2022/05/22 03:14:51;;;;;;;5.15;2.92;;;11.90;99.90;;;;;;4939320;29;20170;-69
2022/05/22 03:17:17;;;;;;;4.20;2.90;;;11.90;99.90;;;;;;4938951;29;20186;-69
2022/05/22 03:19:43;;;;;;;5.05;3.25;;;11.90;99.90;;;;;;4938974;29;20289;-69
2022/05/22 03:22:11;;;;;;;5.38;3.08;;;11.90;99.90;;;;;;4938445;29;20288;-69
2022/05/22 03:24:37;;;;;;;6.95;3.00;;;11.90;99.90;;;;;;4937539;29;20185;-69
2022/05/22 03:27:10;;;;;;;3.60;3.00;;;12.00;99.90;;;;;;4937592;29;20179;-69
2022/05/22 03:29:36;;;;;;;3.28;2.97;;;12.00;99.90;;;;;;4939054;29;20182;-69
2022/05/22 03:32:02;;;;;;;5.47;3.10;;;11.90;99.90;;;;;;4938844;29;20182;-69
2022/05/22 03:34:28;;;;;;;4.60;3.00;;;11.90;99.90;;;;;;4937390;29;20190;-69
2022/05/22 03:37:00;;;;;;;6.70;3.05;;;11.80;99.90;;;;;;4938920;29;20175;-70
2022/05/22 03:39:26;;;;;;;3.25;2.80;;;11.90;99.90;;;;;;4937397;29;20309;-70
2022/05/22 03:41:51;;;;;;;5.43;3.45;;;11.80;99.90;;;;;;4937813;29;20234;-70
2022/05/22 03:44:17;;;;;;;4.22;3.00;;;11.80;99.90;;;;;;4938579;29;20189;-70
2022/05/22 03:46:44;;;;;;;3.45;3.10;;;11.80;99.90;;;;;;4937849;29;20182;-70
2022/05/22 03:49:10;;;;;;;6.70;2.90;;;11.80;99.90;;;;;;4937298;29;20186;-70
2022/05/22 03:51:36;;;;;;;3.63;2.92;;;11.80;99.90;;;;;;4937399;29;20641;-70
2022/05/22 03:54:02;;;;;;;3.28;2.92;;;11.90;99.90;;;;;;4937569;29;20289;-70
2022/05/22 03:56:27;;;;;;;5.68;2.90;;;12.10;99.90;;;;;;4937075;29;20642;-70
2022/05/22 03:58:53;;;;;;;9.85;3.35;;;12.20;99.90;;;;;;4937109;29;20214;-70
2022/05/22 04:01:18;;;;;;;7.00;3.20;;;12.20;99.90;;;;;;4937364;29;20186;-70
2022/05/22 04:03:44;;;;;;;4.68;3.50;;;12.20;99.90;;;;;;4937283;29;20354;-70
2022/05/22 04:06:11;;;;;;;4.43;3.58;;;12.10;99.90;;;;;;4937211;29;20181;-70
2022/05/22 04:08:37;;;;;;;3.15;2.92;;;12.00;99.90;;;;;;4938217;29;20209;-70
2022/05/22 04:11:12;;;;;;;3.90;3.17;;;12.00;99.90;;;;;;4937393;29;20263;-70
2022/05/22 04:13:38;;;;;;;3.35;3.05;;;12.00;99.90;;;;;;4937214;29;20672;-70
2022/05/22 04:16:04;;;;;;;5.75;3.15;;;12.00;99.90;;;;;;4936780;29;20190;-70
2022/05/22 04:18:29;;;;;;;4.78;3.45;;;12.00;99.90;;;;;;4936441;29;20210;-70
2022/05/22 04:20:55;;;;;;;6.40;3.85;;;11.90;99.90;;;;;;4936968;29;20541;-70
2022/05/22 04:26:05;;;;;;;4.03;3.63;;;11.90;99.90;;;;;;4938321;29;20177;-70
2022/05/22 04:28:31;;;;;;;4.53;3.35;;;11.90;99.90;;;;;;4936746;29;20233;-70
2022/05/22 04:30:57;;;;;;;4.60;3.60;;;12.10;99.90;;;;;;4937690;29;20193;-70
2022/05/22 04:33:24;;;;;;;4.68;3.55;;;12.10;99.90;;;;;;4936392;29;20214;-70
2022/05/22 04:35:50;;;;;;;7.65;3.63;;;12.10;99.90;;;;;;4937874;29;20246;-70
2022/05/22 04:38:16;;;;;;;5.70;3.83;;;12.20;99.90;;;;;;4937626;29;20319;-70
2022/05/22 04:40:42;;;;;;;5.63;3.42;;;12.30;99.90;;;;;;4936489;29;20178;-70
2022/05/22 04:43:09;;;;;;;3.70;3.40;;;12.50;99.90;;;;;;4937563;29;20273;-70
2022/05/22 04:45:39;;;;;;;5.57;3.50;;;12.60;99.90;;;;;;4936517;29;20212;-70
2022/05/22 04:48:05;;;;;;;5.40;3.42;;;12.70;99.90;;;;;;4936102;29;20182;-70
2022/05/22 04:50:32;;;;;;;5.00;3.53;;;12.80;99.90;;;;;;4936741;29;20210;-70
2022/05/22 04:52:57;;;;;;;6.72;3.17;;;12.80;99.90;;;;;;4936148;29;20231;-70
2022/05/22 04:55:23;;;;;;;6.93;3.42;;;13.00;99.90;;;;;;4936294;29;20550;-70
2022/05/22 04:57:49;;;;;;;4.75;3.13;;;12.80;99.90;;;;;;4937326;29;20178;-70
2022/05/22 05:00:15;;;;;;;4.72;2.90;;;12.90;99.90;;;;;;4936173;29;20181;-70
2022/05/22 05:02:41;;;;;;;4.22;2.83;;;13.10;99.90;;;;;;4935908;29;20194;-69
2022/05/22 05:05:10;;;;;;;5.03;3.20;;;13.40;99.90;;;;;;4936066;29;20178;-70
2022/05/22 05:07:39;;;;;;;2.92;2.70;;;13.70;99.90;;;;;;4936306;29;20609;-70
2022/05/22 05:10:06;;;;;;;6.78;2.50;;;13.70;99.90;;;;;;4936257;29;20625;-70
2022/05/22 05:12:36;;;;;;;6.95;2.80;;;14.10;99.90;;;;;;4936720;29;20234;-70
2022/05/22 05:15:02;;;;;;;4.15;3.13;;;14.20;99.90;;;;;;4936281;29;20634;-70
2022/05/22 05:17:28;;;;;;;5.20;3.20;;;14.10;99.90;;;;;;4936146;29;20186;-70
2022/05/22 05:19:53;;;;;;;6.15;2.90;;;14.20;99.90;;;;;;4936344;29;20205;-70
2022/05/22 05:22:19;;;;;;;4.88;3.60;;;14.40;99.90;;;;;;4936628;29;20201;-70
2022/05/22 05:24:45;;;;;;;4.60;2.90;;;14.60;99.90;;;;;;4937681;29;20564;-70
2022/05/22 05:27:10;;;;;;;4.10;2.90;;;15.00;99.90;;;;;;4936562;29;20174;-70
2022/05/22 05:29:36;;;;;;;4.97;3.35;;;15.10;99.90;;;;;;4937234;29;20190;-70
2022/05/22 05:32:01;;;;;;;5.18;3.05;;;15.00;99.90;;;;;;4935887;29;20653;-70
2022/05/22 05:34:27;;;;;;;3.45;3.15;;;15.00;99.90;;;;;;4936299;29;20604;-70
2022/05/22 05:36:52;;;;;;;6.20;3.38;;;14.90;99.90;;;;;;4936311;29;20194;-70
2022/05/22 05:39:18;;;;;;;4.20;3.30;;;15.00;99.90;;;;;;4936541;29;20224;-70
2022/05/22 05:41:44;;;;;;;5.13;3.40;;;15.00;99.90;;;;;;4936378;29;20278;-70
2022/05/22 05:44:09;;;;;;;6.78;3.72;;;14.90;99.90;;;;;;4936166;29;20194;-70
2022/05/22 05:46:36;;;;;;;4.88;3.45;;;14.70;99.90;;;;;;4936508;29;20217;-70
2022/05/22 05:49:03;;;;;;;7.97;3.63;;;14.70;99.90;;;;;;4937579;29;20560;-70
2022/05/22 05:51:31;;;;;;;7.60;3.95;;;14.70;99.90;;;;;;4936155;29;20655;-70
2022/05/22 05:53:56;;;;;;;4.15;3.60;;;14.70;99.90;;;;;;4937016;29;20248;-70
2022/05/22 05:56:22;;;;;;;6.25;3.92;;;14.70;99.90;;;;;;4936387;29;20213;-70
2022/05/22 05:58:48;;;;;;;4.72;3.58;;;14.60;99.90;;;;;;4936032;29;20210;-70
2022/05/22 06:01:18;;;;;;;6.05;3.88;;;14.70;99.90;;;;;;4936668;29;20293;-70
2022/05/22 06:03:44;;;;;;;5.47;3.92;;;14.80;99.90;;;;;;4936386;29;20630;-69
2022/05/22 06:06:12;;;;;;;6.63;3.40;;;14.70;99.90;;;;;;4936342;29;20174;-71
2022/05/22 06:08:38;;;;;;;5.57;3.88;;;14.90;99.90;;;;;;4936067;29;20269;-71
2022/05/22 06:11:04;;;;;;;6.25;3.65;;;15.10;99.90;;;;;;4935921;29;20245;-71
2022/05/22 06:13:30;;;;;;;6.82;3.90;;;15.40;99.90;;;;;;4935777;29;20210;-70
2022/05/22 06:15:56;;;;;;;4.00;3.42;;;15.50;99.90;;;;;;4936590;29;20359;-70
2022/05/22 06:18:22;;;;;;;6.70;3.67;;;15.70;99.90;;;;;;4936619;29;20300;-70
2022/05/22 06:20:47;;;;;;;5.22;3.65;;;16.10;99.90;;;;;;4936216;29;20178;-71
2022/05/22 06:23:13;;;;;;;7.32;3.80;;;16.40;99.90;;;;;;4937583;29;20214;-71
2022/05/22 06:25:44;;;;;;;7.47;3.83;;;16.30;99.90;;;;;;4937853;29;20257;-71
2022/05/22 06:28:13;;;;;;;4.28;3.42;;;16.50;99.90;;;;;;4938897;29;20197;-71
2022/05/22 06:30:39;;;;;;;4.75;3.33;;;16.30;99.90;;;;;;4938077;29;20237;-71
2022/05/22 06:33:09;;;;;;;4.10;3.30;;;16.10;99.90;;;;;;4938230;29;20224;-70
2022/05/22 06:35:34;;;;;;;5.32;3.67;;;16.10;99.90;;;;;;4938563;29;20181;-70
2022/05/22 06:38:01;;;;;;;5.55;3.38;;;16.40;99.90;;;;;;4939938;29;20258;-70
2022/05/22 06:40:26;;;;;;;6.30;3.40;;;16.80;99.90;;;;;;4938344;29;20238;-70
2022/05/22 06:42:52;;;;;;;5.13;3.22;;;17.10;99.90;;;;;;4941460;29;20205;-70
2022/05/22 06:45:22;;;;;;;4.55;3.75;;;17.50;99.90;;;;;;4941907;29;20178;-70
2022/05/22 06:47:48;;;;;;;6.53;3.58;;;17.30;99.80;;;;;;4940067;29;20631;-70
2022/05/22 06:50:17;;;;;;;6.68;3.50;;;17.40;99.70;;;;;;4938310;29;20273;-70
2022/05/22 06:52:42;;;;;;;12.57;3.75;;;17.50;99.20;;;;;;4938493;29;20206;-70
2022/05/22 06:55:09;;;;;;;5.47;3.47;;;17.80;98.40;;;;;;4938158;29;20273;-70
2022/05/22 06:57:35;;;;;;;6.85;3.30;;;17.80;97.10;;;;;;4939401;29;20186;-70
2022/05/22 07:00:03;;;;;;;7.32;3.60;;;17.80;97.40;;;;;;4938128;29;20202;-70
2022/05/22 07:02:28;;;;;;;6.10;3.20;;;17.70;97.40;;;;;;4938302;29;20285;-72
2022/05/22 07:05:20;;;;;;;6.53;3.30;;;17.70;97.10;;;;;;4938099;29;20211;-71
2022/05/22 07:07:46;;;;;;;5.07;3.25;;;17.90;96.60;;;;;;4937906;29;20178;-71
2022/05/22 07:10:12;;;;;;;9.43;3.85;;;17.90;96.20;;;;;;4938255;29;20189;-62
2022/05/22 07:12:38;;;;;;;6.32;3.40;;;17.80;98.60;;;;;;4937904;29;20780;-63
2022/05/22 07:15:04;;;;;;;7.75;3.83;;;17.70;96.90;;;;;;4938358;29;20276;-63
2022/05/22 07:17:30;;;;;;;9.18;3.88;;;17.70;97.50;;;;;;4938057;29;20548;-63
2022/05/22 07:19:56;;;;;;;6.75;3.70;;;17.70;96.50;;;;;;4939020;29;20209;-72
2022/05/22 07:22:23;;;;;;;6.18;3.78;;;17.60;96.70;;;;;;4940318;29;20194;-71
2022/05/22 07:24:58;;;;;;;5.68;3.60;;;17.80;96.50;;;;;;4941772;29;20265;-71
2022/05/22 07:27:24;;;;;;;5.15;3.53;;;17.90;95.10;;;;;;4942431;29;20248;-71
2022/05/22 07:29:49;;;;;;;6.43;4.30;;;18.00;94.80;;;;;;4941579;29;20206;-71
2022/05/22 07:32:16;;;;;;;6.57;3.60;;;18.10;94.80;;;;;;4941781;29;20824;-70
2022/05/22 07:34:42;;;;;;;7.65;3.83;;;18.30;95.50;;;;;;4942056;29;20210;-71
2022/05/22 07:37:10;;;;;;;9.60;3.75;;;18.40;92.50;;;;;;4943350;29;20189;-71
2022/05/22 07:39:37;;;;;;;9.57;3.97;;;18.40;90.80;;;;;;4943083;29;20226;-71
2022/05/22 07:42:04;;;;;;;8.85;3.80;;;18.40;91.50;;;;;;4943370;29;20275;-70
2022/05/22 07:44:29;;;;;;;9.18;3.75;;;18.30;90.80;;;;;;4943892;29;20245;-70
2022/05/22 07:47:02;;;;;;;9.32;3.65;;;18.30;91.20;;;;;;4941680;29;20600;-69
2022/05/22 07:52:12;;;;;;;9.25;3.85;;;18.70;90.50;;;;;;4938423;29;20569;-70
2022/05/22 07:54:40;;;;;;;7.88;4.25;;;19.00;90.80;;;;;;4936636;29;20273;-70
2022/05/22 07:57:06;;;;;;;8.05;3.92;;;19.20;88.70;;;;;;4937177;29;20273;-71
2022/05/22 07:59:38;;;;;;;8.27;3.95;;;19.40;89.20;;;;;;4937191;29;20222;-70
2022/05/22 08:02:07;;;;;;;10.02;3.75;;;19.70;86.20;;;;;;4936937;29;20213;-70
2022/05/22 08:04:32;;;;;;;11.38;4.30;;;19.60;84.20;;;;;;4938039;29;20178;-70
2022/05/22 08:06:58;;;;;;;7.50;4.05;;;19.70;82.30;;;;;;4937377;29;20182;-71
2022/05/22 08:09:24;;;;;;;8.75;4.40;;;19.70;82.40;;;;;;4939600;29;20178;-71
2022/05/22 08:11:49;;;;;;;7.38;4.13;;;19.40;82.30;;;;;;4938699;29;20182;-70
2022/05/22 08:14:15;;;;;;;6.28;4.20;;;19.70;82.70;;;;;;4941325;29;20178;-70
2022/05/22 08:16:42;;;;;;;6.05;3.90;;;20.00;80.20;;;;;;4941550;29;20192;-70
2022/05/22 08:19:08;;;;;;;7.65;4.00;;;20.10;79.50;;;;;;4939754;29;20261;-70
2022/05/22 08:21:34;;;;;;;6.75;3.90;;;20.40;77.40;;;;;;4939471;29;20269;-70
2022/05/22 08:23:59;;;;;;;5.13;3.25;;;20.90;77.30;;;;;;4937911;29;20232;-71
2022/05/22 08:26:27;;;;;;;7.85;3.47;;;21.40;76.00;;;;;;4937631;29;20183;-71
2022/05/22 08:28:52;;;;;;;10.00;4.25;;;21.50;71.30;;;;;;4938679;29;20182;-71
2022/05/22 08:31:18;;;;;;;9.88;3.40;;;21.40;69.00;;;;;;4939281;29;20189;-71
2022/05/22 08:33:44;;;;;;;5.15;3.40;;;21.40;70.40;;;;;;4940693;29;20221;-70
2022/05/22 08:36:09;;;;;;;10.63;3.90;;;21.30;72.90;;;;;;4940238;29;20219;-71
2022/05/22 08:38:39;;;;;;;6.95;3.63;;;21.30;72.30;;;;;;4950606;29;20261;-70
2022/05/22 08:41:08;;;;;;;8.13;3.80;;;21.30;73.00;;;;;;4950668;29;20189;-70
2022/05/22 08:43:56;;;;;;;6.35;3.78;;;21.20;70.40;;;;;;4949374;29;20194;-69
2022/05/22 08:46:41;;;;;;;8.57;3.75;;;21.10;70.20;;;;;;4949466;29;20193;-70
2022/05/22 08:49:23;;;;;;;7.85;3.17;;;21.00;68.20;;;;;;4951717;29;20169;-70
2022/05/22 08:52:03;;;;;;;6.03;3.47;;;21.10;68.00;;;;;;4949101;29;20174;-69
2022/05/22 08:54:45;;;;;;;5.00;3.25;;;20.80;67.00;;;;;;4948910;29;20189;-70
2022/05/22 09:00:15;;;;;;;6.75;3.40;;;20.20;68.10;;;;;;4950740;29;20232;-71
2022/05/22 09:03:01;;;;;;;6.53;3.00;;;20.00;68.80;;;;;;4949753;29;20194;-71
2022/05/22 09:05:30;;;;;;;5.57;3.13;;;20.20;71.30;;;;;;4948734;29;20186;-71
2022/05/22 09:08:19;;;;;;;7.10;3.25;;;20.30;70.20;;;;;;4950781;29;20215;-70
2022/05/22 09:10:57;;;;;;;9.90;3.42;;;20.60;70.80;;;;;;4946212;29;20210;-69
2022/05/22 09:13:40;;;;;;;7.30;3.05;;;20.80;68.80;;;;;;4945772;29;20657;-69
2022/05/22 09:16:23;;;;;;;5.65;3.10;;;20.90;67.80;;;;;;4946287;29;20258;-69
2022/05/22 09:19:10;;;;;;;3.95;3.00;;;21.10;67.60;;;;;;4947289;29;20198;-69
2022/05/22 09:22:06;;;;;;;6.88;3.45;;;21.10;66.40;;;;;;4941840;29;20174;-69
2022/05/22 09:24:53;;;;;;;8.30;3.05;;;21.20;67.10;;;;;;4936353;29;20167;-70
2022/05/22 09:27:41;;;;;;;6.25;3.25;;;21.20;65.90;;;;;;4938125;29;20174;-70
2022/05/22 09:30:13;;;;;;;8.27;3.30;;;21.10;64.80;;;;;;4938046;29;20186;-70
2022/05/22 09:32:49;;;;;;;5.28;3.28;;;21.10;62.60;;;;;;4935821;29;20214;-70
2022/05/22 09:35:42;;;;;;;8.68;3.40;;;21.10;64.20;;;;;;4936254;29;20174;-70
2022/05/22 09:38:42;;;;;;;7.15;3.30;;;21.30;62.30;;;;;;4936659;29;20313;-70
2022/05/22 09:41:31;;;;;;;6.65;3.60;;;21.20;62.50;;;;;;4920914;29;20190;-70
2022/05/22 09:44:30;;;;;;;7.45;3.28;;;21.10;61.00;;;;;;4912299;29;20661;-70
2022/05/22 09:47:09;;;;;;;8.30;3.55;;;21.10;61.50;;;;;;4936672;29;20192;-72
2022/05/22 09:49:58;;;;;;;5.22;2.80;;;21.10;63.10;;;;;;4911858;29;20693;-70
2022/05/22 09:55:47;;;;;;;6.75;3.50;;;21.20;62.00;;;;;;4934209;29;20159;-70
2022/05/22 09:58:34;;;;;;;7.20;3.08;;;21.00;62.90;;;;;;4918026;29;20188;-70
2022/05/22 10:01:45;;;;;;;7.18;3.25;;;20.80;62.00;;;;;;4901231;29;20174;-70
2022/05/22 10:07:46;;;;;;;5.80;2.85;;;21.20;62.90;;;;;;4919203;29;20155;-70
2022/05/22 10:10:42;;;;;;;12.38;2.83;;;21.80;57.90;;;;;;4900759;29;20181;-70
2022/05/22 10:13:40;;;;;;;5.57;2.53;;;22.00;58.40;;;;;;4918216;29;20191;-70
2022/05/22 10:16:11;;;;;;;5.55;2.60;;;22.60;58.70;;;;;;4900733;29;20182;-70
2022/05/22 10:19:02;;;;;;;5.97;2.60;;;23.00;57.70;;;;;;4921150;29;20760;-70
2022/05/22 10:21:42;;;;;;;5.07;2.70;;;23.00;57.20;;;;;;4905769;29;20167;-70
2022/05/22 10:24:26;;;;;;;6.28;3.28;;;22.90;55.90;;;;;;4904636;29;20698;-70
2022/05/22 10:27:10;;;;;;;8.32;4.15;;;23.00;55.70;;;;;;4922762;29;20251;-70
2022/05/22 10:30:29;;;;;;;7.13;3.10;;;22.90;55.80;;;;;;4904258;29;20208;-69
2022/05/22 10:33:05;;;;;;;6.47;2.65;;;22.60;56.70;;;;;;4903886;29;20206;-70
2022/05/22 10:35:41;;;;;;;5.40;2.53;;;22.80;57.10;;;;;;4903921;29;20194;-70
2022/05/22 10:38:21;;;;;;;3.47;2.40;;;23.00;57.20;;;;;;4903672;29;20741;-70
2022/05/22 10:43:36;;;;;;;4.32;2.55;;;23.30;57.20;;;;;;4921143;29;20693;-70
2022/05/22 10:46:02;;;;;;;5.18;2.58;;;23.10;55.40;;;;;;4905657;29;20735;-72
2022/05/22 10:48:31;;;;;;;5.32;2.78;;;22.70;56.10;;;;;;4906405;29;20217;-71
2022/05/22 10:51:09;;;;;;;6.97;2.60;;;22.30;55.60;;;;;;4907274;29;20187;-72
2022/05/22 10:53:38;;;;;;;5.72;2.60;;;22.30;56.60;;;;;;4906011;29;20208;-72
2022/05/22 10:56:13;;;;;;;6.65;2.33;;;22.00;56.50;;;;;;4905104;29;20229;-72
2022/05/22 10:58:51;;;;;;;5.68;2.67;;;22.10;57.60;;;;;;4905055;29;20248;-72
2022/05/22 11:01:19;;;;;;;5.60;2.53;;;22.10;56.10;;;;;;4920993;29;20179;-70
2022/05/22 11:03:45;;;;;;;5.40;2.70;;;21.90;55.90;;;;;;4903206;29;20257;-69
2022/05/22 11:06:22;;;;;;;7.03;2.65;;;21.90;55.90;;;;;;4920490;29;20179;-70
2022/05/22 11:08:51;;;;;;;9.20;2.80;;;21.80;56.40;;;;;;4905673;29;20639;-72
2022/05/22 11:11:24;;;;;;;6.38;2.60;;;21.60;57.40;;;;;;4904792;29;20198;-70
2022/05/22 11:13:51;;;;;;;5.97;2.55;;;21.70;59.60;;;;;;4902222;29;20203;-70
2022/05/22 11:16:30;;;;;;;7.07;2.53;;;22.00;60.40;;;;;;4903113;29;20187;-70
2022/05/22 11:19:15;;;;;;;4.53;2.30;;;22.20;56.90;;;;;;4903011;29;20210;-69
2022/05/22 11:22:06;;;;;;;4.47;2.28;;;22.20;57.20;;;;;;4903975;29;20198;-69
2022/05/22 11:24:34;;;;;;;4.47;2.33;;;22.20;56.00;;;;;;4903786;29;20207;-70
2022/05/22 11:27:06;;;;;;;4.60;2.28;;;22.30;57.20;;;;;;4903845;29;20182;-70
2022/05/22 11:29:55;;;;;;;5.85;2.38;;;22.50;55.40;;;;;;4902721;29;20175;-70
2022/05/22 11:32:35;;;;;;;4.18;2.45;;;22.40;55.50;;;;;;4903497;29;20671;-71
2022/05/22 11:35:26;;;;;;;6.63;2.30;;;22.60;55.00;;;;;;4905102;29;20183;-71
2022/05/22 11:38:06;;;;;;;3.85;2.40;;;23.00;55.40;;;;;;4906285;29;20194;-71
2022/05/22 11:40:56;;;;;;;4.68;2.38;;;23.50;53.30;;;;;;4905297;29;20223;-71
2022/05/22 11:43:55;;;;;;;7.47;2.35;;;23.70;51.40;;;;;;4904624;29;20196;-71
2022/05/22 11:46:52;;;;;;;4.00;2.05;;;23.80;51.10;;;;;;4904350;29;20171;-72
2022/05/22 11:49:39;;;;;;;5.30;2.70;;;23.80;52.50;;;;;;4903798;29;20182;-71
2022/05/22 11:55:34;;;;;;;5.15;2.17;;;23.80;51.10;;;;;;4920233;29;20214;-70
2022/05/22 11:58:10;;;;;;;5.40;2.30;;;23.70;51.90;;;;;;4904837;29;20231;-72
2022/05/22 12:00:41;;;;;;;4.90;2.67;;;23.50;52.70;;;;;;4903417;29;20230;-71
2022/05/22 12:03:10;;;;;;;5.30;2.20;;;23.50;52.10;;;;;;4904996;29;20217;-71
2022/05/22 12:06:14;;;;;;;9.23;2.70;;;23.30;51.70;;;;;;4905792;29;20207;-71
2022/05/22 12:08:46;;;;;;;5.85;2.50;;;23.20;53.60;;;;;;4884736;29;20190;-71
2022/05/22 12:11:38;;;;;;;4.90;2.40;;;23.30;53.80;;;;;;4904538;29;20238;-71
2022/05/22 12:14:10;;;;;;;4.72;2.20;;;23.50;54.00;;;;;;4921869;29;20222;-71
2022/05/22 12:16:42;;;;;;;6.55;2.20;;;23.70;52.40;;;;;;4906598;29;20183;-71
2022/05/22 12:19:31;;;;;;;4.35;2.20;;;23.90;54.60;;;;;;4903096;29;20234;-71
2022/05/22 12:22:11;;;;;;;8.98;2.65;;;23.80;52.10;;;;;;4920306;29;20175;-71
2022/05/22 12:25:01;;;;;;;6.10;2.28;;;23.60;54.60;;;;;;4903172;29;20531;-71
2022/05/22 12:27:34;;;;;;;5.00;1.80;;;23.50;52.80;;;;;;4904390;29;20211;-71
2022/05/22 12:30:06;;;;;;;4.53;2.30;;;23.30;52.30;;;;;;4905866;29;20278;-71
2022/05/22 12:32:45;;;;;;;6.25;2.55;;;23.00;52.60;;;;;;4922097;29;20205;-71
2022/05/22 12:35:13;;;;;;;5.93;2.58;;;22.60;53.50;;;;;;4920873;29;20175;-71
2022/05/22 12:37:46;;;;;;;6.28;2.78;;;22.70;54.80;;;;;;4902408;29;20186;-72
2022/05/22 12:40:29;;;;;;;4.00;2.38;;;22.80;54.40;;;;;;4920164;29;20206;-71
2022/05/22 12:42:58;;;;;;;5.20;2.60;;;22.70;54.20;;;;;;4903518;29;20205;-71
2022/05/22 12:45:26;;;;;;;5.40;2.35;;;22.70;54.70;;;;;;4920434;29;20694;-71
2022/05/22 12:47:53;;;;;;;5.07;2.47;;;22.60;53.30;;;;;;4903163;29;20238;-70
2022/05/22 12:50:34;;;;;;;4.40;2.20;;;22.50;53.00;;;;;;4919323;29;20597;-70
2022/05/22 12:53:01;;;;;;;4.78;2.15;;;22.40;52.90;;;;;;4901360;29;20199;-70
2022/05/22 12:55:35;;;;;;;3.97;2.58;;;22.20;53.90;;;;;;4901415;29;20215;-70
2022/05/22 12:58:05;;;;;;;5.97;2.50;;;22.20;54.10;;;;;;4901382;29;20179;-70
2022/05/22 13:00:33;;;;;;;6.00;2.55;;;22.30;54.10;;;;;;4919051;29;20254;-70
2022/05/22 13:03:36;;;;;;;3.30;2.20;;;22.30;53.80;;;;;;4903044;29;20206;-70
2022/05/22 13:06:14;;;;;;;4.55;2.30;;;22.20;54.10;;;;;;4892957;29;20225;-71
2022/05/22 13:08:48;;;;;;;6.97;2.60;;;21.90;54.80;;;;;;4902185;29;20183;-71
2022/05/22 13:11:36;;;;;;;5.05;2.30;;;21.70;55.40;;;;;;4901928;29;20520;-70
2022/05/22 13:14:03;;;;;;;4.50;2.53;;;21.70;56.20;;;;;;4900977;29;20203;-70
2022/05/22 13:16:43;;;;;;;4.55;2.35;;;21.70;57.40;;;;;;4917931;29;20190;-70
2022/05/22 13:19:20;;;;;;;6.78;2.38;;;21.90;57.20;;;;;;4900875;29;20214;-70
2022/05/22 13:21:46;;;;;;;9.70;2.38;;;22.00;55.70;;;;;;4901674;29;20170;-70
2022/05/22 13:24:15;;;;;;;3.92;2.35;;;22.00;55.80;;;;;;4901593;29;20289;-70
2022/05/22 13:26:53;;;;;;;5.57;2.50;;;22.00;55.30;;;;;;4901117;29;20179;-70
2022/05/22 13:29:19;;;;;;;5.85;2.30;;;22.10;55.20;;;;;;4918086;29;20306;-70
2022/05/22 13:31:54;;;;;;;5.25;2.20;;;22.10;55.20;;;;;;4901587;29;20218;-70